Time;durP1;ratioP1;P1;durP2;ratioP2;P2;SDS_P1;SDS_P2;PMS_P1;PMS_P2;Temp;Humidity;BMP_temperature;BMP_pressure;BME280_temperature;BME280_humidity;BME280_pressure;Samples;Min_cycle;Max_cycle;Signal;HPM_P1;HPM_P2
2021/06/17 00:00:30;;;;;;;1.73;1.63;;;;;;;;;;5008963;28;20536;-57
2021/06/17 00:03:05;;;;;;;3.35;1.63;;;;;;;;;;5009002;28;20081;-58
2021/06/17 00:05:35;;;;;;;1.70;1.60;;;;;;;;;;5007534;28;20077;-58
2021/06/17 00:08:04;;;;;;;1.88;1.40;;;;;;;;;;5010677;28;20461;-58
2021/06/17 00:10:34;;;;;;;3.08;2.28;;;;;;;;;;5008244;28;20042;-58
2021/06/17 00:13:09;;;;;;;2.70;1.33;;;;;;;;;;5003591;28;20042;-58
2021/06/17 00:15:40;;;;;;;2.05;1.88;;;;;;;;;;5010212;28;20042;-58
2021/06/17 00:18:17;;;;;;;1.60;1.50;;;;;;;;;;5007598;28;20050;-59
2021/06/17 00:20:51;;;;;;;1.80;1.70;;;;;;;;;;5010321;28;20130;-58
2021/06/17 00:23:23;;;;;;;1.75;1.65;;;;;;;;;;5011962;28;20042;-58
2021/06/17 00:25:59;;;;;;;1.40;1.30;;;;;;;;;;4999811;28;20038;-56
2021/06/17 00:28:35;;;;;;;2.47;2.28;;;;;;;;;;4993431;28;20794;-57
2021/06/17 00:31:11;;;;;;;1.98;1.88;;;;;;;;;;5008326;28;20099;-59
2021/06/17 00:33:48;;;;;;;2.30;2.17;;;;;;;;;;5010039;28;20041;-58
2021/06/17 00:36:23;;;;;;;1.73;1.60;;;;;;;;;;5011361;28;20041;-58
2021/06/17 00:39:07;;;;;;;2.15;1.67;;;;;;;;;;4993662;28;20569;-58
2021/06/17 00:41:42;;;;;;;1.85;1.85;;;;;;;;;;5008612;28;20037;-57
2021/06/17 00:44:22;;;;;;;3.22;1.92;;;;;;;;;;5011333;28;20054;-59
2021/06/17 00:46:53;;;;;;;7.35;1.85;;;;;;;;;;4993290;28;20141;-58
2021/06/17 00:49:32;;;;;;;9.23;1.75;;;;;;;;;;5005922;28;20137;-59
2021/06/17 00:52:07;;;;;;;2.25;2.15;;;;;;;;;;5011844;28;20125;-58
2021/06/17 00:54:50;;;;;;;1.80;1.70;;;;;;;;;;4992732;28;20422;-57
2021/06/17 00:57:24;;;;;;;2.97;2.45;;;;;;;;;;5018279;28;20042;-57
2021/06/17 00:59:57;;;;;;;2.08;1.98;;;;;;;;;;5008108;28;20044;-55
2021/06/17 01:02:30;;;;;;;3.53;1.60;;;;;;;;;;5009345;28;20042;-58
2021/06/17 01:05:08;;;;;;;1.35;1.35;;;;;;;;;;5009962;28;20364;-58
2021/06/17 01:07:57;;;;;;;2.15;2.05;;;;;;;;;;5010856;28;20034;-58
2021/06/17 01:10:39;;;;;;;2.75;1.48;;;;;;;;;;5006230;28;20139;-58
2021/06/17 01:13:30;;;;;;;2.00;2.00;;;;;;;;;;5008741;28;20042;-58
2021/06/17 01:16:01;;;;;;;2.53;2.45;;;;;;;;;;5010475;28;20050;-58
2021/06/17 01:18:32;;;;;;;2.15;2.05;;;;;;;;;;5008931;28;20044;-57
2021/06/17 01:21:03;;;;;;;2.92;2.22;;;;;;;;;;5010308;28;20712;-59
2021/06/17 01:23:53;;;;;;;2.10;1.98;;;;;;;;;;5010302;28;20042;-59
2021/06/17 01:26:36;;;;;;;2.08;1.98;;;;;;;;;;4988816;28;20459;-57
2021/06/17 01:29:12;;;;;;;2.45;1.95;;;;;;;;;;5010876;28;20050;-59
2021/06/17 01:31:42;;;;;;;2.42;1.73;;;;;;;;;;5008587;28;20121;-59
2021/06/17 01:34:15;;;;;;;2.08;2.00;;;;;;;;;;5008031;28;20052;-59
2021/06/17 01:36:48;;;;;;;2.28;2.25;;;;;;;;;;5009678;28;20042;-59
2021/06/17 01:39:24;;;;;;;3.90;2.40;;;;;;;;;;5007056;28;20054;-59
2021/06/17 01:41:52;;;;;;;2.38;2.28;;;;;;;;;;5008487;28;20037;-58
2021/06/17 01:44:25;;;;;;;2.15;2.03;;;;;;;;;;5010032;28;20052;-59
2021/06/17 01:47:00;;;;;;;2.67;2.33;;;;;;;;;;5021832;28;20498;-58
2021/06/17 01:49:35;;;;;;;2.35;2.28;;;;;;;;;;5008238;28;20061;-58
2021/06/17 01:52:09;;;;;;;1.70;1.70;;;;;;;;;;5006012;28;20040;-58
2021/06/17 01:54:44;;;;;;;2.00;1.90;;;;;;;;;;5009543;28;20038;-57
2021/06/17 01:57:15;;;;;;;;;;;;;;;;;;5009737;28;20046;-57
2021/06/17 01:59:47;;;;;;;2.10;1.90;;;;;;;;;;5006833;28;19936;-60
2021/06/17 02:02:19;;;;;;;8.30;2.90;;;;;;;;;;5011073;28;20574;-59
2021/06/17 02:04:53;;;;;;;2.85;2.65;;;;;;;;;;5008175;28;20066;-58
2021/06/17 02:07:26;;;;;;;2.30;2.20;;;;;;;;;;5009990;28;20042;-58
2021/06/17 02:09:59;;;;;;;2.70;2.60;;;;;;;;;;4991499;28;20089;-59
2021/06/17 02:12:31;;;;;;;2.45;2.35;;;;;;;;;;5009284;28;20038;-59
2021/06/17 02:15:11;;;;;;;2.90;2.70;;;;;;;;;;5002895;28;20034;-59
2021/06/17 02:17:45;;;;;;;2.25;2.25;;;;;;;;;;5012761;28;20414;-58
2021/06/17 02:20:17;;;;;;;2.35;2.25;;;;;;;;;;5009018;28;20038;-58
2021/06/17 02:22:52;;;;;;;3.30;2.47;;;;;;;;;;4992208;28;20037;-58
2021/06/17 02:25:24;;;;;;;2.55;2.33;;;;;;;;;;5008753;28;20394;-59
2021/06/17 02:28:09;;;;;;;2.50;2.40;;;;;;;;;;5004275;28;20054;-59
2021/06/17 02:30:41;;;;;;;;;;;;;;;;;;5004894;28;20096;-59
2021/06/17 02:33:21;;;;;;;3.50;3.20;;;;;;;;;;4976068;28;19941;-58
2021/06/17 02:35:56;;;;;;;3.28;3.03;;;;;;;;;;5008173;28;20070;-59
2021/06/17 02:38:33;;;;;;;3.05;2.92;;;;;;;;;;4994486;28;20137;-59
2021/06/17 02:41:07;;;;;;;3.53;3.40;;;;;;;;;;5008631;28;20053;-59
2021/06/17 02:43:44;;;;;;;3.30;3.10;;;;;;;;;;5006499;28;20042;-59
2021/06/17 02:46:16;;;;;;;3.47;3.30;;;;;;;;;;5010000;28;20474;-59
2021/06/17 02:48:53;;;;;;;3.55;3.35;;;;;;;;;;5007970;28;20041;-59
2021/06/17 02:51:34;;;;;;;2.80;2.60;;;;;;;;;;4966341;28;20081;-59
2021/06/17 02:54:12;;;;;;;3.72;3.53;;;;;;;;;;5005935;28;20132;-59
2021/06/17 02:56:47;;;;;;;3.72;3.63;;;;;;;;;;5007535;28;20116;-56
2021/06/17 02:59:35;;;;;;;3.17;3.08;;;;;;;;;;4988997;28;20054;-58
2021/06/17 03:02:19;;;;;;;3.30;3.25;;;;;;;;;;5015112;28;20037;-59
2021/06/17 03:04:59;;;;;;;3.55;2.90;;;;;;;;;;5003801;28;20088;-59
2021/06/17 03:08:01;;;;;;;2.88;2.78;;;;;;;;;;5003093;28;20073;-60
2021/06/17 03:10:36;;;;;;;3.88;3.78;;;;;;;;;;5006266;28;20046;-59
2021/06/17 03:13:16;;;;;;;3.33;3.13;;;;;;;;;;4985708;28;20060;-58
2021/06/17 03:15:49;;;;;;;4.00;3.90;;;;;;;;;;5000599;28;20053;-60
2021/06/17 03:18:26;;;;;;;3.40;3.20;;;;;;;;;;5008059;28;20038;-59
2021/06/17 03:21:03;;;;;;;6.72;3.45;;;;;;;;;;4987542;28;20049;-59
2021/06/17 03:23:32;;;;;;;3.97;3.55;;;;;;;;;;5008213;28;20061;-58
2021/06/17 03:26:09;;;;;;;3.67;3.40;;;;;;;;;;5008694;28;20050;-60
2021/06/17 03:28:39;;;;;;;3.27;3.00;;;;;;;;;;5006462;28;20327;-59
2021/06/17 03:31:17;;;;;;;3.40;3.15;;;;;;;;;;5020151;28;20490;-59
2021/06/17 03:33:53;;;;;;;4.07;2.75;;;;;;;;;;5010984;28;20061;-60
2021/06/17 03:36:28;;;;;;;2.67;2.50;;;;;;;;;;4992231;28;20050;-61
2021/06/17 03:39:03;;;;;;;3.55;3.28;;;;;;;;;;4995874;28;20587;-60
2021/06/17 03:41:39;;;;;;;2.13;2.10;;;;;;;;;;4970689;28;20112;-59
2021/06/17 03:44:15;;;;;;;3.35;3.05;;;;;;;;;;5010632;28;20438;-60
2021/06/17 03:46:49;;;;;;;3.38;3.17;;;;;;;;;;5023457;28;20527;-59
2021/06/17 03:49:26;;;;;;;4.13;3.90;;;;;;;;;;5008067;28;20069;-59
2021/06/17 03:52:01;;;;;;;4.05;3.95;;;;;;;;;;5010921;28;20330;-60
2021/06/17 03:54:37;;;;;;;4.53;2.97;;;;;;;;;;5011397;28;20092;-59
2021/06/17 03:57:07;;;;;;;3.75;3.10;;;;;;;;;;5012287;28;20378;-59
2021/06/17 03:59:43;;;;;;;2.53;2.33;;;;;;;;;;4991997;28;20115;-60
2021/06/17 04:02:16;;;;;;;3.05;2.85;;;;;;;;;;5010625;28;20552;-60
2021/06/17 04:04:50;;;;;;;3.33;2.95;;;;;;;;;;5010077;28;20132;-60
2021/06/17 04:07:24;;;;;;;3.45;3.35;;;;;;;;;;5014009;28;20045;-60
2021/06/17 04:10:00;;;;;;;4.15;3.88;;;;;;;;;;5008794;28;20052;-59
2021/06/17 04:12:31;;;;;;;3.17;3.08;;;;;;;;;;5006407;28;20070;-60
2021/06/17 04:15:03;;;;;;;2.72;2.58;;;;;;;;;;5012454;28;20441;-60
2021/06/17 04:17:49;;;;;;;4.90;3.08;;;;;;;;;;5009243;28;20113;-58
2021/06/17 04:20:34;;;;;;;6.50;2.45;;;;;;;;;;4982939;28;20105;-59
2021/06/17 04:23:13;;;;;;;2.97;2.85;;;;;;;;;;4992730;28;20138;-60
2021/06/17 04:25:45;;;;;;;3.03;2.80;;;;;;;;;;5011230;28;21411;-60
2021/06/17 04:28:17;;;;;;;2.88;2.78;;;;;;;;;;5009622;28;20053;-58
2021/06/17 04:30:46;;;;;;;3.85;3.55;;;;;;;;;;5010568;28;20123;-60
2021/06/17 04:33:19;;;;;;;4.15;3.83;;;;;;;;;;5008592;28;20049;-60
2021/06/17 04:36:03;;;;;;;4.13;3.83;;;;;;;;;;4979645;28;20058;-60
2021/06/17 04:38:38;;;;;;;4.35;3.13;;;;;;;;;;5011934;28;20058;-60
2021/06/17 04:41:16;;;;;;;3.40;3.10;;;;;;;;;;4975839;28;20137;-60
2021/06/17 04:43:49;;;;;;;3.22;3.03;;;;;;;;;;5009583;28;20135;-60
2021/06/17 04:46:24;;;;;;;4.15;3.45;;;;;;;;;;5011077;28;20038;-60
2021/06/17 04:48:56;;;;;;;3.35;3.22;;;;;;;;;;5011152;28;21457;-60
2021/06/17 04:51:36;;;;;;;3.15;2.95;;;;;;;;;;5009604;28;20041;-61
2021/06/17 04:54:18;;;;;;;4.15;3.95;;;;;;;;;;5011757;28;20042;-60
2021/06/17 04:56:50;;;;;;;4.13;3.97;;;;;;;;;;5007551;28;20038;-61
2021/06/17 04:59:19;;;;;;;4.30;4.10;;;;;;;;;;5012968;28;20502;-61
2021/06/17 05:01:51;;;;;;;4.45;4.15;;;;;;;;;;5008729;28;20044;-60
2021/06/17 05:04:31;;;;;;;4.95;4.75;;;;;;;;;;4966954;28;20054;-60
2021/06/17 05:12:29;;;;;;;4.20;3.63;;;;;;;;;;5009117;28;20053;-60
2021/06/17 05:14:57;;;;;;;3.75;3.55;;;;;;;;;;5009402;28;20524;-61
2021/06/17 05:17:30;;;;;;;3.58;3.47;;;;;;;;;;5007844;28;20042;-61
2021/06/17 05:20:01;;;;;;;;;;;;;;;;;;5010967;28;20041;-60
2021/06/17 05:22:36;;;;;;;3.75;3.58;;;;;;;;;;5007689;28;19968;-60
2021/06/17 05:25:03;;;;;;;3.65;3.30;;;;;;;;;;5028614;28;20037;-61
2021/06/17 05:27:31;;;;;;;4.30;4.07;;;;;;;;;;5011281;28;20536;-61
2021/06/17 05:30:02;;;;;;;4.70;3.95;;;;;;;;;;5010669;28;20034;-61
2021/06/17 05:32:33;;;;;;;4.95;4.85;;;;;;;;;;5010221;28;20038;-60
2021/06/17 05:35:03;;;;;;;4.70;4.55;;;;;;;;;;5008054;28;20091;-60
2021/06/17 05:37:34;;;;;;;5.25;4.97;;;;;;;;;;5009817;28;20034;-60
2021/06/17 05:40:07;;;;;;;5.00;4.90;;;;;;;;;;5011137;28;20121;-60
2021/06/17 05:42:38;;;;;;;4.75;4.57;;;;;;;;;;5008040;28;20074;-60
2021/06/17 05:45:06;;;;;;;5.88;5.70;;;;;;;;;;5005283;28;20081;-59
2021/06/17 05:47:36;;;;;;;4.55;4.35;;;;;;;;;;5009039;28;20050;-60
2021/06/17 05:50:07;;;;;;;6.18;5.75;;;;;;;;;;5009601;28;20113;-60
2021/06/17 05:52:40;;;;;;;3.75;3.65;;;;;;;;;;5020049;28;20041;-60
2021/06/17 05:55:15;;;;;;;5.28;5.07;;;;;;;;;;4994395;28;20120;-60
2021/06/17 05:57:46;;;;;;;5.47;5.00;;;;;;;;;;5009798;28;20477;-60
2021/06/17 06:00:16;;;;;;;4.82;4.55;;;;;;;;;;5010419;28;20496;-56
2021/06/17 06:02:48;;;;;;;4.43;4.20;;;;;;;;;;5007665;28;20041;-59
2021/06/17 06:05:20;;;;;;;4.43;4.28;;;;;;;;;;5012522;28;20444;-59
2021/06/17 06:08:03;;;;;;;4.43;4.13;;;;;;;;;;5006416;28;20034;-59
2021/06/17 06:10:39;;;;;;;4.38;4.28;;;;;;;;;;5006118;28;20037;-60
2021/06/17 06:13:14;;;;;;;4.18;3.80;;;;;;;;;;5007877;28;20042;-60
2021/06/17 06:15:48;;;;;;;3.55;3.45;;;;;;;;;;5007777;28;20042;-60
2021/06/17 06:18:25;;;;;;;2.97;2.85;;;;;;;;;;5007015;28;20045;-58
2021/06/17 06:20:58;;;;;;;4.85;4.68;;;;;;;;;;5001444;28;20117;-59
2021/06/17 06:23:30;;;;;;;5.53;5.13;;;;;;;;;;5004506;28;20042;-59
2021/06/17 06:26:01;;;;;;;4.72;4.63;;;;;;;;;;5009490;28;20045;-59
2021/06/17 06:28:32;;;;;;;5.97;5.22;;;;;;;;;;5008755;28;20042;-59
2021/06/17 06:31:01;;;;;;;8.63;5.65;;;;;;;;;;5007622;28;20038;-58
2021/06/17 06:33:30;;;;;;;4.50;4.20;;;;;;;;;;4998423;28;20045;-59
2021/06/17 06:36:05;;;;;;;4.30;4.00;;;;;;;;;;5008032;28;20037;-59
2021/06/17 06:38:40;;;;;;;6.57;4.40;;;;;;;;;;5004951;28;20041;-59
2021/06/17 06:41:15;;;;;;;3.85;3.60;;;;;;;;;;5010418;28;20057;-59
2021/06/17 06:43:44;;;;;;;3.90;3.45;;;;;;;;;;5006218;28;20089;-59
2021/06/17 06:46:17;;;;;;;3.65;3.45;;;;;;;;;;5007559;28;20081;-59
2021/06/17 06:48:48;;;;;;;;;;;;;;;;;;5003952;28;20439;-58
2021/06/17 06:51:16;;;;;;;2.92;2.72;;;;;;;;;;5000792;28;19925;-58
2021/06/17 06:53:49;;;;;;;3.33;3.03;;;;;;;;;;5008783;28;20045;-59
2021/06/17 06:56:22;;;;;;;3.63;3.40;;;;;;;;;;5008477;28;20057;-59
2021/06/17 06:58:53;;;;;;;2.15;2.05;;;;;;;;;;5007339;28;20494;-59
2021/06/17 07:01:25;;;;;;;3.15;3.05;;;;;;;;;;5008163;28;20044;-59
2021/06/17 07:03:54;;;;;;;3.47;3.28;;;;;;;;;;5007263;28;20062;-59
2021/06/17 07:06:23;;;;;;;2.35;2.17;;;;;;;;;;5006788;28;20154;-59
2021/06/17 07:09:02;;;;;;;3.67;3.38;;;;;;;;;;4957580;28;1424724;-59
2021/06/17 07:11:31;;;;;;;3.08;2.10;;;;;;;;;;5006471;28;20794;-58
2021/06/17 07:14:04;;;;;;;2.55;1.77;;;;;;;;;;5007162;28;20042;-55
2021/06/17 07:16:39;;;;;;;2.55;2.45;;;;;;;;;;5008505;28;20041;-59
2021/06/17 07:19:09;;;;;;;2.28;2.17;;;;;;;;;;4998024;28;20145;-59
2021/06/17 07:21:38;;;;;;;1.60;1.50;;;;;;;;;;4996099;28;20046;-59
2021/06/17 07:24:11;;;;;;;2.53;2.33;;;;;;;;;;5005889;28;20037;-59
2021/06/17 07:26:39;;;;;;;2.70;2.05;;;;;;;;;;5006968;28;20570;-59
2021/06/17 07:29:06;;;;;;;1.98;1.88;;;;;;;;;;5006892;28;20045;-59
2021/06/17 07:31:34;;;;;;;1.58;1.48;;;;;;;;;;5006385;28;20034;-59
2021/06/17 07:34:10;;;;;;;1.73;1.73;;;;;;;;;;5015967;28;20054;-58
2021/06/17 07:36:39;;;;;;;;;;;;;;;;;;5009117;28;20049;-57
2021/06/17 07:39:12;;;;;;;3.08;1.63;;;;;;;;;;5007658;28;20360;-60
2021/06/17 07:41:46;;;;;;;2.53;2.38;;;;;;;;;;5008764;28;20085;-60
2021/06/17 07:44:17;;;;;;;4.05;2.45;;;;;;;;;;5007205;28;20418;-60
2021/06/17 07:46:52;;;;;;;2.28;1.92;;;;;;;;;;5007716;28;20145;-59
2021/06/17 07:49:21;;;;;;;1.40;1.30;;;;;;;;;;5003988;28;20052;-59
2021/06/17 07:51:51;;;;;;;1.70;1.60;;;;;;;;;;5001185;28;20057;-59
2021/06/17 07:54:19;;;;;;;1.88;1.77;;;;;;;;;;5009655;28;20034;-59
2021/06/17 07:56:50;;;;;;;3.10;1.83;;;;;;;;;;5008819;28;20057;-60
2021/06/17 07:59:22;;;;;;;1.77;1.67;;;;;;;;;;5007864;28;20038;-60
2021/06/17 08:01:56;;;;;;;2.45;1.25;;;;;;;;;;5009292;28;20068;-60
2021/06/17 08:04:31;;;;;;;1.92;1.77;;;;;;;;;;5007380;28;20046;-60
2021/06/17 08:07:01;;;;;;;1.80;1.10;;;;;;;;;;5006872;28;20044;-59
2021/06/17 08:09:33;;;;;;;8.25;1.30;;;;;;;;;;5009630;28;20069;-60
2021/06/17 08:12:08;;;;;;;1.50;1.50;;;;;;;;;;5006876;28;20042;-60
2021/06/17 08:14:36;;;;;;;;;;;;;;;;;;5008957;28;20058;-59
2021/06/17 08:17:06;;;;;;;2.72;1.20;;;;;;;;;;5013287;28;19925;-59
2021/06/17 08:19:37;;;;;;;1.45;1.10;;;;;;;;;;5010698;28;20120;-60
2021/06/17 08:22:06;;;;;;;1.40;1.30;;;;;;;;;;5012862;28;20409;-60
2021/06/17 08:24:44;;;;;;;1.90;1.10;;;;;;;;;;5007845;28;20038;-60
2021/06/17 08:27:17;;;;;;;2.28;1.08;;;;;;;;;;5010217;28;20033;-60
2021/06/17 08:29:52;;;;;;;3.45;1.40;;;;;;;;;;5004486;28;20052;-60
2021/06/17 08:32:28;;;;;;;1.70;1.10;;;;;;;;;;5012275;28;20025;-59
2021/06/17 08:34:59;;;;;;;1.73;1.20;;;;;;;;;;5008994;28;20039;-61
2021/06/17 08:37:27;;;;;;;1.10;1.10;;;;;;;;;;5012343;28;20122;-60
2021/06/17 08:39:58;;;;;;;1.00;1.00;;;;;;;;;;5009909;28;20056;-60
2021/06/17 08:42:31;;;;;;;2.30;1.00;;;;;;;;;;5012394;28;20076;-61
2021/06/17 08:45:05;;;;;;;1.60;1.05;;;;;;;;;;5011358;28;20045;-60
2021/06/17 08:47:38;;;;;;;1.63;0.90;;;;;;;;;;5009300;28;20057;-61
2021/06/17 08:50:14;;;;;;;1.85;1.15;;;;;;;;;;5013193;28;20577;-61
2021/06/17 08:52:43;;;;;;;1.17;1.08;;;;;;;;;;5010931;28;20034;-60
2021/06/17 08:55:12;;;;;;;0.90;0.90;;;;;;;;;;5010894;28;20065;-60
2021/06/17 08:57:42;;;;;;;4.05;1.25;;;;;;;;;;5012611;28;20047;-59
2021/06/17 09:00:14;;;;;;;2.00;0.90;;;;;;;;;;5008887;28;20387;-61
2021/06/17 09:02:45;;;;;;;2.00;1.23;;;;;;;;;;5004878;28;20100;-60
2021/06/17 09:05:16;;;;;;;1.85;1.67;;;;;;;;;;5007196;28;20041;-61
2021/06/17 09:07:49;;;;;;;1.60;1.48;;;;;;;;;;5008600;28;20045;-60
2021/06/17 09:10:21;;;;;;;3.80;1.20;;;;;;;;;;5009680;28;20137;-61
2021/06/17 09:12:56;;;;;;;1.25;1.10;;;;;;;;;;5009265;28;20037;-60
2021/06/17 09:15:34;;;;;;;1.00;1.00;;;;;;;;;;5007480;28;20030;-59
2021/06/17 09:18:25;;;;;;;1.05;1.05;;;;;;;;;;5021933;28;20103;-61
2021/06/17 09:20:56;;;;;;;1.58;1.00;;;;;;;;;;5003579;28;20076;-59
2021/06/17 09:23:25;;;;;;;;;;;;;;;;;;4993887;28;20104;-61
2021/06/17 09:25:59;;;;;;;1.00;1.00;;;;;;;;;;5011081;28;19984;-61
2021/06/17 09:28:45;;;;;;;1.15;1.00;;;;;;;;;;5009683;28;20072;-60
2021/06/17 09:31:22;;;;;;;2.00;0.93;;;;;;;;;;5005540;28;20034;-60
2021/06/17 09:33:55;;;;;;;0.98;0.98;;;;;;;;;;5016240;28;20488;-61
2021/06/17 09:36:32;;;;;;;2.20;1.10;;;;;;;;;;5009063;28;20037;-61
2021/06/17 09:39:15;;;;;;;3.25;0.95;;;;;;;;;;4991143;28;20062;-61
2021/06/17 09:41:51;;;;;;;1.48;0.90;;;;;;;;;;5006160;28;20045;-62
2021/06/17 09:44:37;;;;;;;0.80;0.80;;;;;;;;;;5009350;28;20038;-61
2021/06/17 09:47:09;;;;;;;0.80;0.80;;;;;;;;;;5010424;28;20049;-61
2021/06/17 09:49:42;;;;;;;0.70;0.70;;;;;;;;;;5009098;28;20034;-60
2021/06/17 09:52:12;;;;;;;1.40;0.90;;;;;;;;;;5010028;28;20045;-60
2021/06/17 09:54:42;;;;;;;3.60;1.23;;;;;;;;;;5011205;28;20616;-60
2021/06/17 09:57:23;;;;;;;0.80;0.70;;;;;;;;;;5008081;28;20053;-60
2021/06/17 09:59:56;;;;;;;0.70;0.70;;;;;;;;;;5008908;28;20034;-60
2021/06/17 10:02:38;;;;;;;1.25;0.80;;;;;;;;;;5009156;28;20097;-61
2021/06/17 10:05:18;;;;;;;2.25;0.70;;;;;;;;;;5003996;28;20084;-62
2021/06/17 10:07:49;;;;;;;2.78;0.80;;;;;;;;;;5011412;28;20112;-61
2021/06/17 10:10:21;;;;;;;0.88;0.75;;;;;;;;;;5008481;28;20053;-61
2021/06/17 10:12:48;;;;;;;1.30;0.70;;;;;;;;;;5008673;28;20088;-61
2021/06/17 10:15:18;;;;;;;1.02;0.80;;;;;;;;;;5018779;28;20042;-60
2021/06/17 10:17:52;;;;;;;1.63;0.80;;;;;;;;;;5008054;28;20034;-62
2021/06/17 10:20:23;;;;;;;2.33;0.80;;;;;;;;;;5003633;28;20058;-62
2021/06/17 10:22:58;;;;;;;0.70;0.70;;;;;;;;;;5008851;28;20100;-61
2021/06/17 10:25:33;;;;;;;0.95;0.80;;;;;;;;;;5011329;28;20049;-61
2021/06/17 10:28:04;;;;;;;2.42;0.75;;;;;;;;;;4974897;28;20061;-61
2021/06/17 10:30:46;;;;;;;0.73;0.70;;;;;;;;;;5009248;28;20045;-62
2021/06/17 10:33:27;;;;;;;0.90;0.90;;;;;;;;;;5008646;28;20032;-62
2021/06/17 10:36:22;;;;;;;1.48;0.70;;;;;;;;;;5011287;28;20041;-61
2021/06/17 10:39:13;;;;;;;1.13;0.90;;;;;;;;;;5010726;28;20034;-61
2021/06/17 10:41:46;;;;;;;0.70;0.70;;;;;;;;;;5007484;28;20124;-61
2021/06/17 10:44:33;;;;;;;0.70;0.70;;;;;;;;;;5008425;28;20065;-61
2021/06/17 10:47:06;;;;;;;3.80;0.80;;;;;;;;;;5009380;28;20435;-61
2021/06/17 10:50:01;;;;;;;2.45;0.70;;;;;;;;;;5008857;28;20402;-61
2021/06/17 10:52:36;;;;;;;1.58;0.73;;;;;;;;;;5008922;28;20053;-61
2021/06/17 10:55:06;;;;;;;1.15;0.90;;;;;;;;;;5007400;28;20666;-61
2021/06/17 10:57:56;;;;;;;0.90;0.90;;;;;;;;;;5005439;28;20045;-61
2021/06/17 11:00:28;;;;;;;0.90;0.80;;;;;;;;;;5009492;28;20046;-61
2021/06/17 11:03:07;;;;;;;0.70;0.70;;;;;;;;;;5008990;28;20108;-61
2021/06/17 11:05:50;;;;;;;0.77;0.75;;;;;;;;;;4959525;28;20053;-61
2021/06/17 11:08:20;;;;;;;0.80;0.80;;;;;;;;;;5010135;28;20550;-61
2021/06/17 11:10:58;;;;;;;2.30;0.75;;;;;;;;;;5008727;28;20038;-61
2021/06/17 11:13:31;;;;;;;1.00;0.80;;;;;;;;;;5006255;28;20033;-60
2021/06/17 11:16:05;;;;;;;0.60;0.60;;;;;;;;;;5010040;28;20096;-61
2021/06/17 11:18:51;;;;;;;1.83;0.85;;;;;;;;;;5009139;28;20045;-61
2021/06/17 11:21:26;;;;;;;3.65;0.77;;;;;;;;;;5007240;28;20111;-61
2021/06/17 11:24:10;;;;;;;1.25;0.73;;;;;;;;;;5009615;28;20049;-61
2021/06/17 11:26:47;;;;;;;1.17;0.60;;;;;;;;;;5007728;28;20489;-61
2021/06/17 11:29:36;;;;;;;1.75;0.98;;;;;;;;;;4992226;28;20121;-61
2021/06/17 11:32:25;;;;;;;0.70;0.70;;;;;;;;;;5015497;28;20084;-61
2021/06/17 11:35:04;;;;;;;1.10;0.70;;;;;;;;;;5006976;28;20460;-60
2021/06/17 11:37:35;;;;;;;0.65;0.65;;;;;;;;;;5007947;28;20088;-61
2021/06/17 11:40:05;;;;;;;1.30;0.50;;;;;;;;;;5010049;28;20046;-61
2021/06/17 11:42:34;;;;;;;0.40;0.40;;;;;;;;;;5010121;28;20452;-62
2021/06/17 11:45:08;;;;;;;1.88;0.50;;;;;;;;;;5008660;28;20609;-61
2021/06/17 11:47:50;;;;;;;2.53;0.50;;;;;;;;;;5008676;28;20049;-60
2021/06/17 11:50:21;;;;;;;0.47;0.47;;;;;;;;;;4997139;28;20129;-60
2021/06/17 11:52:50;;;;;;;0.40;0.40;;;;;;;;;;5014019;28;20070;-61
2021/06/17 11:55:18;;;;;;;1.35;0.57;;;;;;;;;;5012058;28;20500;-61
2021/06/17 11:57:47;;;;;;;0.50;0.50;;;;;;;;;;5010894;28;20036;-61
2021/06/17 12:00:32;;;;;;;0.45;0.45;;;;;;;;;;5013629;28;20073;-61
2021/06/17 12:03:14;;;;;;;5.78;0.50;;;;;;;;;;5004440;28;20701;-61
2021/06/17 12:05:47;;;;;;;0.50;0.50;;;;;;;;;;5007083;28;20037;-61
2021/06/17 12:08:26;;;;;;;0.50;0.50;;;;;;;;;;5012779;28;20044;-61
2021/06/17 12:11:01;;;;;;;0.50;0.40;;;;;;;;;;5008707;28;20103;-62
2021/06/17 12:13:32;;;;;;;0.85;0.60;;;;;;;;;;5012349;28;20070;-61
2021/06/17 12:16:00;;;;;;;1.92;0.60;;;;;;;;;;5011178;28;20128;-60
2021/06/17 12:18:29;;;;;;;0.63;0.50;;;;;;;;;;5009690;28;20088;-58
2021/06/17 12:21:05;;;;;;;0.70;0.70;;;;;;;;;;5001838;28;20046;-60
2021/06/17 12:23:35;;;;;;;1.60;0.70;;;;;;;;;;5008603;28;20080;-59
2021/06/17 12:26:09;;;;;;;0.70;0.70;;;;;;;;;;5008312;28;20145;-60
2021/06/17 12:28:56;;;;;;;2.47;0.88;;;;;;;;;;5019427;28;20048;-60
2021/06/17 12:31:32;;;;;;;0.80;0.60;;;;;;;;;;5009302;28;20398;-59
2021/06/17 12:34:06;;;;;;;1.48;0.70;;;;;;;;;;5007605;28;20108;-60
2021/06/17 12:36:43;;;;;;;5.22;0.70;;;;;;;;;;5015768;28;20048;-60
2021/06/17 12:39:16;;;;;;;1.30;0.60;;;;;;;;;;5010000;28;20042;-59
2021/06/17 12:41:50;;;;;;;0.65;0.65;;;;;;;;;;5013456;28;20128;-60
2021/06/17 12:44:28;;;;;;;2.38;0.60;;;;;;;;;;5006084;28;20041;-60
2021/06/17 12:47:07;;;;;;;0.55;0.55;;;;;;;;;;4966086;28;20061;-59
2021/06/17 12:52:29;;;;;;;0.63;0.63;;;;;;;;;;5004868;28;20052;-59
2021/06/17 12:54:58;;;;;;;1.60;0.70;;;;;;;;;;5008510;28;20041;-59
2021/06/17 12:57:27;;;;;;;0.70;0.70;;;;;;;;;;5016966;28;20034;-59
2021/06/17 13:00:05;;;;;;;2.03;0.80;;;;;;;;;;5012426;28;20050;-60
2021/06/17 13:02:44;;;;;;;1.70;0.70;;;;;;;;;;5011448;28;20034;-60
2021/06/17 13:05:19;;;;;;;4.03;0.77;;;;;;;;;;5009354;28;20068;-60
2021/06/17 13:08:00;;;;;;;0.70;0.70;;;;;;;;;;5016671;28;20048;-59
2021/06/17 13:10:32;;;;;;;1.70;0.82;;;;;;;;;;5006767;28;20042;-60
2021/06/17 13:13:37;;;;;;;0.88;0.88;;;;;;;;;;5006753;28;20053;-59
2021/06/17 13:16:17;;;;;;;2.92;0.63;;;;;;;;;;4941265;29;20054;-58
2021/06/17 13:18:57;;;;;;;0.60;0.60;;;;;;;;;;4937670;28;20102;-61
2021/06/17 13:21:28;;;;;;;2.20;0.80;;;;;;;;;;4945105;28;20047;-61
2021/06/17 13:24:01;;;;;;;0.80;0.80;;;;;;;;;;4933825;29;20074;-60
2021/06/17 13:26:38;;;;;;;0.55;0.55;;;;;;;;;;4948841;29;20086;-60
2021/06/17 13:29:09;;;;;;;2.58;0.60;;;;;;;;;;4947328;29;20051;-59
2021/06/17 13:31:40;;;;;;;1.42;0.60;;;;;;;;;;4948464;29;20138;-60
2021/06/17 13:34:19;;;;;;;0.70;0.70;;;;;;;;;;4931477;28;20074;-60
2021/06/17 13:36:50;;;;;;;0.75;0.75;;;;;;;;;;4944871;28;20051;-60
2021/06/17 13:39:23;;;;;;;0.68;0.68;;;;;;;;;;4962271;28;20574;-60
2021/06/17 13:41:55;;;;;;;1.00;0.60;;;;;;;;;;4945702;29;20195;-60
2021/06/17 13:44:24;;;;;;;1.45;0.60;;;;;;;;;;4942495;28;20055;-59
2021/06/17 13:46:54;;;;;;;0.80;0.80;;;;;;;;;;4946673;29;20050;-61
2021/06/17 13:49:22;;;;;;;0.57;0.57;;;;;;;;;;4928686;29;20051;-60
2021/06/17 13:51:55;;;;;;;1.65;0.60;;;;;;;;;;4982296;28;20116;-60
2021/06/17 13:54:29;;;;;;;0.60;0.60;;;;;;;;;;5002264;28;20065;-60
2021/06/17 13:57:04;;;;;;;0.60;0.60;;;;;;;;;;5004411;28;20030;-60
2021/06/17 13:59:38;;;;;;;3.50;0.70;;;;;;;;;;5005797;28;20029;-60
2021/06/17 14:02:12;;;;;;;5.25;0.60;;;;;;;;;;5007056;28;20038;-60
2021/06/17 14:04:44;;;;;;;0.88;0.60;;;;;;;;;;5007634;28;20371;-59
2021/06/17 14:07:16;;;;;;;1.40;0.63;;;;;;;;;;5007787;28;20121;-59
2021/06/17 14:09:50;;;;;;;0.68;0.68;;;;;;;;;;4997738;28;20053;-60
2021/06/17 14:12:19;;;;;;;3.13;0.60;;;;;;;;;;5004011;28;20030;-60
2021/06/17 14:14:57;;;;;;;1.85;0.70;;;;;;;;;;5005943;28;20113;-60
2021/06/17 14:17:30;;;;;;;2.53;0.68;;;;;;;;;;5006389;28;20105;-60
2021/06/17 14:19:57;;;;;;;2.28;0.70;;;;;;;;;;5004427;28;20486;-60
2021/06/17 14:22:26;;;;;;;1.98;0.73;;;;;;;;;;5006014;28;20057;-60
2021/06/17 14:24:54;;;;;;;0.73;0.73;;;;;;;;;;5010470;28;20045;-59
2021/06/17 14:27:25;;;;;;;0.70;0.70;;;;;;;;;;5002365;28;20046;-57
2021/06/17 14:29:54;;;;;;;2.30;0.70;;;;;;;;;;4998731;28;20048;-59
2021/06/17 14:32:25;;;;;;;2.15;0.88;;;;;;;;;;5010759;28;20061;-60
2021/06/17 14:34:53;;;;;;;2.35;0.70;;;;;;;;;;5006617;28;20076;-60
2021/06/17 14:37:21;;;;;;;0.80;0.80;;;;;;;;;;5006519;28;20394;-60
2021/06/17 14:39:50;;;;;;;0.70;0.70;;;;;;;;;;5008289;28;20038;-60
2021/06/17 14:42:24;;;;;;;0.90;0.90;;;;;;;;;;5008595;28;20542;-57
2021/06/17 14:44:53;;;;;;;2.97;1.10;;;;;;;;;;5009923;28;20596;-60
2021/06/17 14:47:24;;;;;;;1.00;1.00;;;;;;;;;;5009192;28;20501;-59
2021/06/17 14:49:54;;;;;;;1.50;0.80;;;;;;;;;;5008721;28;20041;-60
2021/06/17 14:52:23;;;;;;;0.82;0.82;;;;;;;;;;5009978;28;20566;-59
2021/06/17 14:54:51;;;;;;;0.77;0.77;;;;;;;;;;5001994;28;20029;-59
2021/06/17 14:57:19;;;;;;;2.65;0.80;;;;;;;;;;5008019;28;20049;-60
2021/06/17 14:59:47;;;;;;;0.80;0.80;;;;;;;;;;5008248;28;20057;-59
2021/06/17 15:02:16;;;;;;;0.77;0.70;;;;;;;;;;5007711;28;20531;-60
2021/06/17 15:04:44;;;;;;;0.70;0.70;;;;;;;;;;5009906;28;20096;-60
2021/06/17 15:07:14;;;;;;;0.60;0.60;;;;;;;;;;5006943;28;20046;-59
2021/06/17 15:09:45;;;;;;;0.70;0.70;;;;;;;;;;5018640;28;20068;-58
2021/06/17 15:12:14;;;;;;;0.60;0.60;;;;;;;;;;5007094;28;20149;-60
2021/06/17 15:14:44;;;;;;;1.13;0.70;;;;;;;;;;4998344;28;20033;-60
2021/06/17 15:17:18;;;;;;;3.25;0.70;;;;;;;;;;5009148;28;20116;-61
2021/06/17 15:19:48;;;;;;;1.10;0.95;;;;;;;;;;5005348;28;20520;-60
2021/06/17 15:22:19;;;;;;;3.25;0.85;;;;;;;;;;5009231;28;20049;-60
2021/06/17 15:24:47;;;;;;;1.10;0.70;;;;;;;;;;5007336;28;20124;-60
2021/06/17 15:27:14;;;;;;;6.72;0.70;;;;;;;;;;5004924;28;20073;-60
2021/06/17 15:29:42;;;;;;;2.45;0.73;;;;;;;;;;4995851;28;20049;-60
2021/06/17 15:32:23;;;;;;;0.60;0.60;;;;;;;;;;5012747;28;20029;-60
2021/06/17 15:34:52;;;;;;;1.95;0.80;;;;;;;;;;5011294;28;20053;-61